Edcouch, TX

3:13 AM CDT on August 26, 2019 (GMT -0500)
201 Reyes | | Change Station

Elev 60 ft 26.29 °N, 97.97 °W | Updated 5 seconds ago

Partly Cloudy
Partly Cloudy
84.9 °F
Feels Like 101 °F
N
2
Wind Variable Wind from SE
Gusts 3.0 mph

Today
High -- | Low -- °F
--% Chance of Precip.
Yesterday
High -- | Low -- °F
Precip. -- in
Pressure 29.79 in
Visibility 5.0 miles
Clouds Overcast 1300 ft
Heat Index 101 °F
Dew Point 81 °F
Humidity 89%
Rainfall 0.00 in
Snow Depth Not available.
7:09 AM 7:57 PM
Waning Crescent, 22% visible
METAR KEBG 260755Z AUTO 00000KT 5SM BR OVC013 28/26 A2979 RMK AO2 T02800261
Pressure 29.79 in
Visibility 5.0 miles
Clouds Overcast 1300 ft
Heat Index 101 °F
Dew Point 81 °F
Humidity 89%
Rainfall 0.00 in
Snow Depth Not available.
7:09 AM 7:57 PM
Waning Crescent, 22% visible
METAR KEBG 260755Z AUTO 00000KT 5SM BR OVC013 28/26 A2979 RMK AO2 T02800261

Get Severe Weather Alerts

Thanks for signing up!

Be on the lookout for a verification email in your inbox.

You'll start receiving the daily forecast at 6 AM.

×

10-Day Weather Forecast

Almanac

Astronomy

Aug. 26, 2019 Rise Set
Actual Time
Civil Twilight
Nautical Twilight
Astronomical Twilight
Moon
Length of Visible Light
Length of Day
Tomorrow will be .
, % of the Moon is Illuminated

Today's Extremes

State Highs State Lows

Community

WunderPhotos

Category 6

Welcome to Category 6. This is the collective home for Weather Underground's featured writeups by Dr. Jeff Masters (right), Bob Henson (left), Chris Burt, and other regular contributors.

Nearby

Air Quality

  Air Quality AQ Index Pollutant
Not available.

Snow Depth

Station Depth Elevation

Earthquake Activity

City Distance Mag. Time & Date
Minimum magnitude displayed is 2.5.

Coastal Water Temperatures

Place Temperature

Stations

Nearby Weather Stations

Station Location Temp. Windchill Dew Point Humidity Wind Precip. Elev Updated Type
                   

Watches & Warnings

There are currently no watches in effect.